sensor_id;sensor_type;location;lat;lon;timestamp;temperature;humidity
65374;SHT31;52070;53.760;9.678;2022-12-18T00:02:22;-5.93;91.58
65374;SHT31;52070;53.760;9.678;2022-12-18T00:04:48;-5.97;91.51
65374;SHT31;52070;53.760;9.678;2022-12-18T00:07:17;-5.97;91.53
65374;SHT31;52070;53.760;9.678;2022-12-18T00:09:44;-5.92;91.70
65374;SHT31;52070;53.760;9.678;2022-12-18T00:12:12;-5.94;91.85
65374;SHT31;52070;53.760;9.678;2022-12-18T00:14:39;-5.97;91.81
65374;SHT31;52070;53.760;9.678;2022-12-18T00:17:06;-5.97;91.78
65374;SHT31;52070;53.760;9.678;2022-12-18T00:19:33;-5.97;91.87
65374;SHT31;52070;53.760;9.678;2022-12-18T00:22:00;-6.00;91.85
65374;SHT31;52070;53.760;9.678;2022-12-18T00:24:28;-5.85;91.94
65374;SHT31;52070;53.760;9.678;2022-12-18T00:26:55;-5.90;92.00
65374;SHT31;52070;53.760;9.678;2022-12-18T00:29:22;-5.94;91.94
65374;SHT31;52070;53.760;9.678;2022-12-18T00:31:49;-5.92;91.88
65374;SHT31;52070;53.760;9.678;2022-12-18T00:34:16;-5.99;91.83
65374;SHT31;52070;53.760;9.678;2022-12-18T00:36:43;-6.00;91.76
65374;SHT31;52070;53.760;9.678;2022-12-18T00:39:11;-6.00;91.72
65374;SHT31;52070;53.760;9.678;2022-12-18T00:41:40;-6.04;91.76
65374;SHT31;52070;53.760;9.678;2022-12-18T00:44:24;-6.06;91.82
65374;SHT31;52070;53.760;9.678;2022-12-18T00:46:51;-6.06;91.82
65374;SHT31;52070;53.760;9.678;2022-12-18T00:49:19;-6.06;91.86
65374;SHT31;52070;53.760;9.678;2022-12-18T00:51:46;-6.06;91.82
65374;SHT31;52070;53.760;9.678;2022-12-18T00:54:14;-5.96;91.93
65374;SHT31;52070;53.760;9.678;2022-12-18T00:56:42;-5.83;91.88
65374;SHT31;52070;53.760;9.678;2022-12-18T00:59:09;-5.87;91.93
65374;SHT31;52070;53.760;9.678;2022-12-18T01:01:36;-5.92;91.78
65374;SHT31;52070;53.760;9.678;2022-12-18T01:04:05;-5.92;91.69
65374;SHT31;52070;53.760;9.678;2022-12-18T01:06:32;-5.93;91.71
65374;SHT31;52070;53.760;9.678;2022-12-18T01:08:59;-5.83;91.68
65374;SHT31;52070;53.760;9.678;2022-12-18T01:11:26;-5.78;91.70
65374;SHT31;52070;53.760;9.678;2022-12-18T01:13:54;-5.70;91.69
65374;SHT31;52070;53.760;9.678;2022-12-18T01:16:22;-5.66;91.61
65374;SHT31;52070;53.760;9.678;2022-12-18T01:18:51;-5.62;91.47
65374;SHT31;52070;53.760;9.678;2022-12-18T01:21:19;-5.40;91.29
65374;SHT31;52070;53.760;9.678;2022-12-18T01:23:51;-5.45;91.03
65374;SHT31;52070;53.760;9.678;2022-12-18T01:26:18;-5.38;90.76
65374;SHT31;52070;53.760;9.678;2022-12-18T01:28:45;-5.42;90.63
65374;SHT31;52070;53.760;9.678;2022-12-18T01:31:16;-5.39;90.50
65374;SHT31;52070;53.760;9.678;2022-12-18T01:33:44;-5.34;90.45
65374;SHT31;52070;53.760;9.678;2022-12-18T01:36:15;-5.35;90.36
65374;SHT31;52070;53.760;9.678;2022-12-18T01:38:43;-5.34;90.31
65374;SHT31;52070;53.760;9.678;2022-12-18T01:41:10;-5.35;90.23
65374;SHT31;52070;53.760;9.678;2022-12-18T01:43:45;-5.36;90.18
65374;SHT31;52070;53.760;9.678;2022-12-18T01:46:14;-5.34;90.16
65374;SHT31;52070;53.760;9.678;2022-12-18T01:48:42;-5.32;90.12
65374;SHT31;52070;53.760;9.678;2022-12-18T01:51:10;-5.39;90.03
65374;SHT31;52070;53.760;9.678;2022-12-18T01:53:40;-5.31;89.92
65374;SHT31;52070;53.760;9.678;2022-12-18T01:56:08;-5.34;89.97
65374;SHT31;52070;53.760;9.678;2022-12-18T01:58:39;-5.35;89.87
65374;SHT31;52070;53.760;9.678;2022-12-18T02:01:08;-5.35;89.89
65374;SHT31;52070;53.760;9.678;2022-12-18T02:03:37;-5.27;89.85
65374;SHT31;52070;53.760;9.678;2022-12-18T02:06:10;-5.19;89.79
65374;SHT31;52070;53.760;9.678;2022-12-18T02:08:47;-5.18;89.71
65374;SHT31;52070;53.760;9.678;2022-12-18T02:11:18;-5.18;89.54
65374;SHT31;52070;53.760;9.678;2022-12-18T02:13:55;-5.08;89.38
65374;SHT31;52070;53.760;9.678;2022-12-18T02:16:32;-5.07;89.16
65374;SHT31;52070;53.760;9.678;2022-12-18T02:19:07;-5.01;88.97
65374;SHT31;52070;53.760;9.678;2022-12-18T02:21:45;-5.03;88.80
65374;SHT31;52070;53.760;9.678;2022-12-18T02:24:23;-5.05;88.67
65374;SHT31;52070;53.760;9.678;2022-12-18T02:26:58;-5.09;88.59
65374;SHT31;52070;53.760;9.678;2022-12-18T02:29:28;-5.14;88.58
65374;SHT31;52070;53.760;9.678;2022-12-18T02:32:01;-5.15;88.56
65374;SHT31;52070;53.760;9.678;2022-12-18T02:34:31;-5.15;88.55
65374;SHT31;52070;53.760;9.678;2022-12-18T02:37:02;-5.08;88.52
65374;SHT31;52070;53.760;9.678;2022-12-18T02:39:34;-5.09;88.44
65374;SHT31;52070;53.760;9.678;2022-12-18T02:42:03;-5.14;88.36
65374;SHT31;52070;53.760;9.678;2022-12-18T02:44:33;-5.19;88.33
65374;SHT31;52070;53.760;9.678;2022-12-18T02:47:01;-5.21;88.40
65374;SHT31;52070;53.760;9.678;2022-12-18T02:49:33;-5.15;88.42
65374;SHT31;52070;53.760;9.678;2022-12-18T02:52:09;-5.19;88.38
65374;SHT31;52070;53.760;9.678;2022-12-18T02:54:45;-5.25;88.37
65374;SHT31;52070;53.760;9.678;2022-12-18T02:57:20;-5.25;88.37
65374;SHT31;52070;53.760;9.678;2022-12-18T02:59:57;-5.32;88.35
65374;SHT31;52070;53.760;9.678;2022-12-18T03:02:27;-5.36;88.29
65374;SHT31;52070;53.760;9.678;2022-12-18T03:05:01;-5.42;88.35
65374;SHT31;52070;53.760;9.678;2022-12-18T03:07:35;-5.42;88.43
65374;SHT31;52070;53.760;9.678;2022-12-18T03:10:06;-5.51;88.39
65374;SHT31;52070;53.760;9.678;2022-12-18T03:12:39;-5.54;88.45
65374;SHT31;52070;53.760;9.678;2022-12-18T03:15:10;-5.60;88.51
65374;SHT31;52070;53.760;9.678;2022-12-18T03:17:42;-5.66;88.52
65374;SHT31;52070;53.760;9.678;2022-12-18T03:20:13;-5.75;88.52
65374;SHT31;52070;53.760;9.678;2022-12-18T03:22:42;-5.85;88.53
65374;SHT31;52070;53.760;9.678;2022-12-18T03:25:13;-5.89;88.66
65374;SHT31;52070;53.760;9.678;2022-12-18T03:27:46;-5.92;88.77
65374;SHT31;52070;53.760;9.678;2022-12-18T03:30:16;-5.99;88.77
65374;SHT31;52070;53.760;9.678;2022-12-18T03:32:47;-6.07;88.79
65374;SHT31;52070;53.760;9.678;2022-12-18T03:35:22;-6.04;89.02
65374;SHT31;52070;53.760;9.678;2022-12-18T03:37:50;-6.09;89.22
65374;SHT31;52070;53.760;9.678;2022-12-18T03:40:19;-6.11;89.27
65374;SHT31;52070;53.760;9.678;2022-12-18T03:42:51;-6.17;89.23
65374;SHT31;52070;53.760;9.678;2022-12-18T03:45:23;-6.21;89.25
65374;SHT31;52070;53.760;9.678;2022-12-18T03:47:58;-6.24;89.28
65374;SHT31;52070;53.760;9.678;2022-12-18T03:50:32;-6.31;89.24
65374;SHT31;52070;53.760;9.678;2022-12-18T03:53:08;-6.33;89.35
65374;SHT31;52070;53.760;9.678;2022-12-18T03:55:39;-6.40;89.36
65374;SHT31;52070;53.760;9.678;2022-12-18T03:58:09;-6.34;89.50
65374;SHT31;52070;53.760;9.678;2022-12-18T04:00:37;-6.33;89.74
65374;SHT31;52070;53.760;9.678;2022-12-18T04:03:05;-6.28;89.84
65374;SHT31;52070;53.760;9.678;2022-12-18T04:05:34;-6.31;89.89
65374;SHT31;52070;53.760;9.678;2022-12-18T04:08:03;-6.27;89.94
65374;SHT31;52070;53.760;9.678;2022-12-18T04:10:30;-6.31;89.92
65374;SHT31;52070;53.760;9.678;2022-12-18T04:12:57;-6.34;89.87
65374;SHT31;52070;53.760;9.678;2022-12-18T04:15:26;-6.28;89.90
65374;SHT31;52070;53.760;9.678;2022-12-18T04:17:53;-6.34;89.86
65374;SHT31;52070;53.760;9.678;2022-12-18T04:20:20;-6.34;89.83
65374;SHT31;52070;53.760;9.678;2022-12-18T04:22:47;-6.31;89.92
65374;SHT31;52070;53.760;9.678;2022-12-18T04:25:14;-6.28;89.87
65374;SHT31;52070;53.760;9.678;2022-12-18T04:27:41;-6.30;89.79
65374;SHT31;52070;53.760;9.678;2022-12-18T04:30:09;-6.28;89.66
65374;SHT31;52070;53.760;9.678;2022-12-18T04:32:38;-6.14;89.62
65374;SHT31;52070;53.760;9.678;2022-12-18T04:35:05;-6.10;89.41
65374;SHT31;52070;53.760;9.678;2022-12-18T04:37:36;-6.15;89.28
65374;SHT31;52070;53.760;9.678;2022-12-18T04:40:04;-6.03;89.09
65374;SHT31;52070;53.760;9.678;2022-12-18T04:42:32;-6.01;88.88
65374;SHT31;52070;53.760;9.678;2022-12-18T04:44:59;-6.03;88.80
65374;SHT31;52070;53.760;9.678;2022-12-18T04:47:26;-6.00;88.71
65374;SHT31;52070;53.760;9.678;2022-12-18T04:49:54;-6.06;88.68
65374;SHT31;52070;53.760;9.678;2022-12-18T04:52:21;-6.01;88.56
65374;SHT31;52070;53.760;9.678;2022-12-18T04:54:48;-6.10;88.65
65374;SHT31;52070;53.760;9.678;2022-12-18T04:57:15;-6.17;88.52
65374;SHT31;52070;53.760;9.678;2022-12-18T04:59:43;-6.21;88.63
65374;SHT31;52070;53.760;9.678;2022-12-18T05:02:10;-6.27;88.68
65374;SHT31;52070;53.760;9.678;2022-12-18T05:04:38;-6.34;88.66
65374;SHT31;52070;53.760;9.678;2022-12-18T05:07:07;-6.41;88.66
65374;SHT31;52070;53.760;9.678;2022-12-18T05:09:34;-6.47;88.74
65374;SHT31;52070;53.760;9.678;2022-12-18T05:12:01;-6.47;88.88
65374;SHT31;52070;53.760;9.678;2022-12-18T05:14:28;-6.47;88.96
65374;SHT31;52070;53.760;9.678;2022-12-18T05:16:55;-6.41;89.11
65374;SHT31;52070;53.760;9.678;2022-12-18T05:19:22;-6.35;89.17
65374;SHT31;52070;53.760;9.678;2022-12-18T05:21:49;-6.35;89.19
65374;SHT31;52070;53.760;9.678;2022-12-18T05:24:17;-6.37;89.10
65374;SHT31;52070;53.760;9.678;2022-12-18T05:26:44;-6.40;88.99
65374;SHT31;52070;53.760;9.678;2022-12-18T05:29:11;-6.35;88.99
65374;SHT31;52070;53.760;9.678;2022-12-18T05:31:38;-6.20;88.93
65374;SHT31;52070;53.760;9.678;2022-12-18T05:34:06;-6.14;88.73
65374;SHT31;52070;53.760;9.678;2022-12-18T05:36:33;-6.24;88.43
65374;SHT31;52070;53.760;9.678;2022-12-18T05:39:00;-6.34;88.33
65374;SHT31;52070;53.760;9.678;2022-12-18T05:41:28;-6.45;88.34
65374;SHT31;52070;53.760;9.678;2022-12-18T05:43:55;-6.48;88.35
65374;SHT31;52070;53.760;9.678;2022-12-18T05:46:22;-6.44;88.56
65374;SHT31;52070;53.760;9.678;2022-12-18T05:48:50;-6.44;88.65
65374;SHT31;52070;53.760;9.678;2022-12-18T05:51:18;-6.42;88.69
65374;SHT31;52070;53.760;9.678;2022-12-18T05:53:46;-6.49;88.65
65374;SHT31;52070;53.760;9.678;2022-12-18T05:56:15;-6.47;88.72
65374;SHT31;52070;53.760;9.678;2022-12-18T05:58:44;-6.55;88.68
65374;SHT31;52070;53.760;9.678;2022-12-18T06:01:13;-6.64;88.63
65374;SHT31;52070;53.760;9.678;2022-12-18T06:03:41;-6.67;88.73
65374;SHT31;52070;53.760;9.678;2022-12-18T06:06:15;-6.61;88.93
65374;SHT31;52070;53.760;9.678;2022-12-18T06:08:42;-6.51;88.98
65374;SHT31;52070;53.760;9.678;2022-12-18T06:11:09;-6.57;89.13
65374;SHT31;52070;53.760;9.678;2022-12-18T06:13:36;-6.47;89.02
65374;SHT31;52070;53.760;9.678;2022-12-18T06:16:05;-6.52;89.02
65374;SHT31;52070;53.760;9.678;2022-12-18T06:18:32;-6.61;88.88
65374;SHT31;52070;53.760;9.678;2022-12-18T06:21:00;-6.71;88.85
65374;SHT31;52070;53.760;9.678;2022-12-18T06:23:27;-6.75;88.98
65374;SHT31;52070;53.760;9.678;2022-12-18T06:25:55;-6.84;88.98
65374;SHT31;52070;53.760;9.678;2022-12-18T06:28:22;-6.89;89.05
65374;SHT31;52070;53.760;9.678;2022-12-18T06:30:49;-6.98;89.10
65374;SHT31;52070;53.760;9.678;2022-12-18T06:33:18;-7.02;89.22
65374;SHT31;52070;53.760;9.678;2022-12-18T06:35:45;-6.99;89.32
65374;SHT31;52070;53.760;9.678;2022-12-18T06:38:11;-6.95;89.64
65374;SHT31;52070;53.760;9.678;2022-12-18T06:40:38;-6.98;89.79
65374;SHT31;52070;53.760;9.678;2022-12-18T06:43:06;-6.99;89.79
65374;SHT31;52070;53.760;9.678;2022-12-18T06:45:33;-7.05;89.79
65374;SHT31;52070;53.760;9.678;2022-12-18T06:48:00;-7.08;89.76
65374;SHT31;52070;53.760;9.678;2022-12-18T06:50:29;-7.09;89.77
65374;SHT31;52070;53.760;9.678;2022-12-18T06:52:56;-7.12;89.84
65374;SHT31;52070;53.760;9.678;2022-12-18T06:55:23;-7.20;89.77
65374;SHT31;52070;53.760;9.678;2022-12-18T06:57:50;-7.26;89.77
65374;SHT31;52070;53.760;9.678;2022-12-18T07:00:18;-7.33;89.81
65374;SHT31;52070;53.760;9.678;2022-12-18T07:02:45;-7.33;89.84
65374;SHT31;52070;53.760;9.678;2022-12-18T07:05:12;-7.31;89.94
65374;SHT31;52070;53.760;9.678;2022-12-18T07:07:40;-7.30;90.22
65374;SHT31;52070;53.760;9.678;2022-12-18T07:10:08;-7.31;90.30
65374;SHT31;52070;53.760;9.678;2022-12-18T07:12:35;-7.30;90.33
65374;SHT31;52070;53.760;9.678;2022-12-18T07:15:02;-7.36;90.41
65374;SHT31;52070;53.760;9.678;2022-12-18T07:17:29;-7.10;90.60
65374;SHT31;52070;53.760;9.678;2022-12-18T07:19:56;-7.08;90.85
65374;SHT31;52070;53.760;9.678;2022-12-18T07:22:24;-7.13;90.88
65374;SHT31;52070;53.760;9.678;2022-12-18T07:24:53;-7.20;90.82
65374;SHT31;52070;53.760;9.678;2022-12-18T07:27:21;-7.27;90.73
65374;SHT31;52070;53.760;9.678;2022-12-18T07:29:48;-7.30;90.65
65374;SHT31;52070;53.760;9.678;2022-12-18T07:32:15;-7.34;90.63
65374;SHT31;52070;53.760;9.678;2022-12-18T07:34:42;-7.41;90.64
65374;SHT31;52070;53.760;9.678;2022-12-18T07:37:09;-7.47;90.61
65374;SHT31;52070;53.760;9.678;2022-12-18T07:39:36;-7.50;90.63
65374;SHT31;52070;53.760;9.678;2022-12-18T07:42:07;-7.48;90.71
65374;SHT31;52070;53.760;9.678;2022-12-18T07:44:51;-7.48;90.87
65374;SHT31;52070;53.760;9.678;2022-12-18T07:47:19;-7.50;90.96
65374;SHT31;52070;53.760;9.678;2022-12-18T07:49:46;-7.51;90.97
65374;SHT31;52070;53.760;9.678;2022-12-18T07:52:13;-7.47;91.07
65374;SHT31;52070;53.760;9.678;2022-12-18T07:54:40;-7.47;91.12
65374;SHT31;52070;53.760;9.678;2022-12-18T07:57:08;-7.47;91.09
65374;SHT31;52070;53.760;9.678;2022-12-18T07:59:35;-7.48;91.00
65374;SHT31;52070;53.760;9.678;2022-12-18T08:02:02;-7.55;90.98
65374;SHT31;52070;53.760;9.678;2022-12-18T08:04:29;-7.57;90.82
65374;SHT31;52070;53.760;9.678;2022-12-18T08:06:56;-7.57;90.82
65374;SHT31;52070;53.760;9.678;2022-12-18T08:09:23;-7.54;90.84
65374;SHT31;52070;53.760;9.678;2022-12-18T08:11:50;-7.50;90.90
65374;SHT31;52070;53.760;9.678;2022-12-18T08:14:19;-7.51;90.93
65374;SHT31;52070;53.760;9.678;2022-12-18T08:16:46;-7.50;90.94
65374;SHT31;52070;53.760;9.678;2022-12-18T08:19:14;-7.48;90.93
65374;SHT31;52070;53.760;9.678;2022-12-18T08:21:41;-7.44;90.95
65374;SHT31;52070;53.760;9.678;2022-12-18T08:24:09;-7.41;90.98
65374;SHT31;52070;53.760;9.678;2022-12-18T08:26:36;-7.40;91.03
65374;SHT31;52070;53.760;9.678;2022-12-18T08:29:03;-7.37;91.01
65374;SHT31;52070;53.760;9.678;2022-12-18T08:31:31;-7.37;90.95
65374;SHT31;52070;53.760;9.678;2022-12-18T08:33:58;-7.34;90.91
65374;SHT31;52070;53.760;9.678;2022-12-18T08:36:25;-7.39;90.87
65374;SHT31;52070;53.760;9.678;2022-12-18T08:38:53;-7.36;90.83
65374;SHT31;52070;53.760;9.678;2022-12-18T08:41:20;-7.39;90.78
65374;SHT31;52070;53.760;9.678;2022-12-18T08:43:47;-7.34;90.79
65374;SHT31;52070;53.760;9.678;2022-12-18T08:46:36;-7.33;90.82
65374;SHT31;52070;53.760;9.678;2022-12-18T08:49:04;-7.29;90.84
65374;SHT31;52070;53.760;9.678;2022-12-18T08:51:32;-7.24;90.90
65374;SHT31;52070;53.760;9.678;2022-12-18T08:53:59;-7.19;90.92
65374;SHT31;52070;53.760;9.678;2022-12-18T08:56:26;-7.18;90.94
65374;SHT31;52070;53.760;9.678;2022-12-18T08:58:53;-7.09;91.02
65374;SHT31;52070;53.760;9.678;2022-12-18T09:01:21;-7.00;91.04
65374;SHT31;52070;53.760;9.678;2022-12-18T09:03:50;-6.92;91.11
65374;SHT31;52070;53.760;9.678;2022-12-18T09:06:19;-6.78;91.22
65374;SHT31;52070;53.760;9.678;2022-12-18T09:08:46;-6.71;91.28
65374;SHT31;52070;53.760;9.678;2022-12-18T09:11:15;-6.60;91.28
65374;SHT31;52070;53.760;9.678;2022-12-18T09:13:45;-6.41;91.27
65374;SHT31;52070;53.760;9.678;2022-12-18T09:16:31;-6.20;91.30
65374;SHT31;52070;53.760;9.678;2022-12-18T09:19:22;-5.86;91.31
65374;SHT31;52070;53.760;9.678;2022-12-18T09:22:09;-5.51;91.56
65374;SHT31;52070;53.760;9.678;2022-12-18T09:24:56;-5.25;91.63
65374;SHT31;52070;53.760;9.678;2022-12-18T09:27:46;-5.04;91.43
65374;SHT31;52070;53.760;9.678;2022-12-18T09:30:36;-4.74;91.20
65374;SHT31;52070;53.760;9.678;2022-12-18T09:33:24;-4.53;90.75
65374;SHT31;52070;53.760;9.678;2022-12-18T09:36:15;-4.13;90.20
65374;SHT31;52070;53.760;9.678;2022-12-18T09:38:43;-3.73;89.24
65374;SHT31;52070;53.760;9.678;2022-12-18T09:41:22;-3.34;88.44
65374;SHT31;52070;53.760;9.678;2022-12-18T09:43:56;-3.06;85.86
65374;SHT31;52070;53.760;9.678;2022-12-18T09:46:27;-2.93;84.46
65374;SHT31;52070;53.760;9.678;2022-12-18T09:49:00;-2.75;83.87
65374;SHT31;52070;53.760;9.678;2022-12-18T09:51:33;-2.61;83.37
65374;SHT31;52070;53.760;9.678;2022-12-18T09:54:05;-2.51;83.19
65374;SHT31;52070;53.760;9.678;2022-12-18T09:56:36;-2.44;82.18
65374;SHT31;52070;53.760;9.678;2022-12-18T09:59:04;-2.41;81.23
65374;SHT31;52070;53.760;9.678;2022-12-18T10:01:32;-2.34;79.98
65374;SHT31;52070;53.760;9.678;2022-12-18T10:03:59;-2.28;79.33
65374;SHT31;52070;53.760;9.678;2022-12-18T10:06:34;-2.30;79.01
65374;SHT31;52070;53.760;9.678;2022-12-18T10:09:07;-2.23;79.35
65374;SHT31;52070;53.760;9.678;2022-12-18T10:11:42;-2.20;79.41
65374;SHT31;52070;53.760;9.678;2022-12-18T10:14:16;-2.06;80.03
65374;SHT31;52070;53.760;9.678;2022-12-18T10:16:54;-2.03;79.93
65374;SHT31;52070;53.760;9.678;2022-12-18T10:19:34;-2.10;80.29
65374;SHT31;52070;53.760;9.678;2022-12-18T10:22:11;-2.24;79.84
65374;SHT31;52070;53.760;9.678;2022-12-18T10:24:48;-2.35;80.44
65374;SHT31;52070;53.760;9.678;2022-12-18T10:27:23;-2.30;80.39
65374;SHT31;52070;53.760;9.678;2022-12-18T10:29:51;-2.30;80.63
65374;SHT31;52070;53.760;9.678;2022-12-18T10:32:21;-2.34;80.50
65374;SHT31;52070;53.760;9.678;2022-12-18T10:34:50;-2.42;80.22
65374;SHT31;52070;53.760;9.678;2022-12-18T10:37:20;-2.40;80.52
65374;SHT31;52070;53.760;9.678;2022-12-18T10:40:07;-2.28;79.45
65374;SHT31;52070;53.760;9.678;2022-12-18T10:42:35;-2.28;80.04
65374;SHT31;52070;53.760;9.678;2022-12-18T10:45:05;-2.27;80.67
65374;SHT31;52070;53.760;9.678;2022-12-18T10:47:33;-2.15;80.56
65374;SHT31;52070;53.760;9.678;2022-12-18T10:50:01;-2.14;80.75
65374;SHT31;52070;53.760;9.678;2022-12-18T10:52:29;-2.13;81.34
65374;SHT31;52070;53.760;9.678;2022-12-18T10:54:58;-2.07;81.31
65374;SHT31;52070;53.760;9.678;2022-12-18T10:57:31;-2.03;80.84
65374;SHT31;52070;53.760;9.678;2022-12-18T11:00:20;-1.96;80.59
65374;SHT31;52070;53.760;9.678;2022-12-18T11:02:48;-1.89;80.95
65374;SHT31;52070;53.760;9.678;2022-12-18T11:05:27;-1.84;80.99
65374;SHT31;52070;53.760;9.678;2022-12-18T11:07:56;-1.79;81.16
65374;SHT31;52070;53.760;9.678;2022-12-18T11:10:28;-1.70;80.84
65374;SHT31;52070;53.760;9.678;2022-12-18T11:13:09;-1.64;80.75
65374;SHT31;52070;53.760;9.678;2022-12-18T11:15:36;-1.59;79.39
65374;SHT31;52070;53.760;9.678;2022-12-18T11:18:16;-1.58;79.50
65374;SHT31;52070;53.760;9.678;2022-12-18T11:20:50;-1.45;79.93
65374;SHT31;52070;53.760;9.678;2022-12-18T11:23:21;-1.32;77.93
65374;SHT31;52070;53.760;9.678;2022-12-18T11:25:54;-1.29;78.48
65374;SHT31;52070;53.760;9.678;2022-12-18T11:28:29;-1.34;79.22
65374;SHT31;52070;53.760;9.678;2022-12-18T11:31:15;-1.32;80.00
65374;SHT31;52070;53.760;9.678;2022-12-18T11:33:46;-1.27;80.41
65374;SHT31;52070;53.760;9.678;2022-12-18T11:36:16;-1.22;80.54
65374;SHT31;52070;53.760;9.678;2022-12-18T11:38:47;-1.15;80.15
65374;SHT31;52070;53.760;9.678;2022-12-18T11:41:23;-1.09;79.23
65374;SHT31;52070;53.760;9.678;2022-12-18T11:44:15;-0.99;78.65
65374;SHT31;52070;53.760;9.678;2022-12-18T11:46:47;-0.95;77.11
65374;SHT31;52070;53.760;9.678;2022-12-18T11:49:20;-0.87;76.98
65374;SHT31;52070;53.760;9.678;2022-12-18T11:51:53;-0.77;76.77
65374;SHT31;52070;53.760;9.678;2022-12-18T11:54:23;-0.74;76.27
65374;SHT31;52070;53.760;9.678;2022-12-18T11:56:55;-0.63;77.13
65374;SHT31;52070;53.760;9.678;2022-12-18T11:59:32;-0.56;77.80
65374;SHT31;52070;53.760;9.678;2022-12-18T12:02:18;-0.57;77.47
65374;SHT31;52070;53.760;9.678;2022-12-18T12:05:00;-0.58;77.03
65374;SHT31;52070;53.760;9.678;2022-12-18T12:07:40;-0.70;77.24
65374;SHT31;52070;53.760;9.678;2022-12-18T12:10:27;-0.78;77.58
65374;SHT31;52070;53.760;9.678;2022-12-18T12:13:07;-0.73;77.57
65374;SHT31;52070;53.760;9.678;2022-12-18T12:15:43;-0.68;76.87
65374;SHT31;52070;53.760;9.678;2022-12-18T12:18:21;-0.73;77.04
65374;SHT31;52070;53.760;9.678;2022-12-18T12:20:59;-0.74;76.82
65374;SHT31;52070;53.760;9.678;2022-12-18T12:23:37;-0.73;76.31
65374;SHT31;52070;53.760;9.678;2022-12-18T12:26:10;-0.78;76.93
65374;SHT31;52070;53.760;9.678;2022-12-18T12:28:58;-0.83;77.42
65374;SHT31;52070;53.760;9.678;2022-12-18T12:31:34;-0.83;77.21
65374;SHT31;52070;53.760;9.678;2022-12-18T12:34:16;-0.77;76.99
65374;SHT31;52070;53.760;9.678;2022-12-18T12:36:53;-0.74;77.21
65374;SHT31;52070;53.760;9.678;2022-12-18T12:39:24;-0.70;77.30
65374;SHT31;52070;53.760;9.678;2022-12-18T12:41:55;-0.66;77.22
65374;SHT31;52070;53.760;9.678;2022-12-18T12:44:43;-0.57;76.89
65374;SHT31;52070;53.760;9.678;2022-12-18T12:47:12;-0.50;75.95
65374;SHT31;52070;53.760;9.678;2022-12-18T12:49:45;-0.54;76.34
65374;SHT31;52070;53.760;9.678;2022-12-18T12:52:18;-0.61;76.43
65374;SHT31;52070;53.760;9.678;2022-12-18T12:54:48;-0.60;76.79
65374;SHT31;52070;53.760;9.678;2022-12-18T12:57:22;-0.60;76.62
65374;SHT31;52070;53.760;9.678;2022-12-18T12:59:57;-0.60;76.43
65374;SHT31;52070;53.760;9.678;2022-12-18T13:02:31;-0.41;76.54
65374;SHT31;52070;53.760;9.678;2022-12-18T13:05:03;-0.38;76.60
65374;SHT31;52070;53.760;9.678;2022-12-18T13:07:35;-0.29;75.71
65374;SHT31;52070;53.760;9.678;2022-12-18T13:10:30;-0.30;76.17
65374;SHT31;52070;53.760;9.678;2022-12-18T13:13:01;-0.34;76.51
65374;SHT31;52070;53.760;9.678;2022-12-18T13:15:34;-0.32;75.95
65374;SHT31;52070;53.760;9.678;2022-12-18T13:18:10;-0.44;74.91
65374;SHT31;52070;53.760;9.678;2022-12-18T13:20:39;-0.49;74.75
65374;SHT31;52070;53.760;9.678;2022-12-18T13:23:30;-0.63;74.23
65374;SHT31;52070;53.760;9.678;2022-12-18T13:25:58;-0.70;75.03
65374;SHT31;52070;53.760;9.678;2022-12-18T13:28:51;-0.74;74.44
65374;SHT31;52070;53.760;9.678;2022-12-18T13:34:34;-0.91;74.46
65374;SHT31;52070;53.760;9.678;2022-12-18T13:43:27;-1.09;74.62
65374;SHT31;52070;53.760;9.678;2022-12-18T13:46:05;-1.09;75.22
65374;SHT31;52070;53.760;9.678;2022-12-18T13:48:36;-1.12;75.33
65374;SHT31;52070;53.760;9.678;2022-12-18T13:51:05;-1.13;74.48
65374;SHT31;52070;53.760;9.678;2022-12-18T13:53:37;-1.19;75.20
65374;SHT31;52070;53.760;9.678;2022-12-18T13:56:05;-1.24;75.58
65374;SHT31;52070;53.760;9.678;2022-12-18T13:58:32;-1.29;76.26
65374;SHT31;52070;53.760;9.678;2022-12-18T14:00:59;-1.29;76.44
65374;SHT31;52070;53.760;9.678;2022-12-18T14:03:30;-1.28;76.33
65374;SHT31;52070;53.760;9.678;2022-12-18T14:06:03;-1.36;76.60
65374;SHT31;52070;53.760;9.678;2022-12-18T14:08:37;-1.36;76.51
65374;SHT31;52070;53.760;9.678;2022-12-18T14:11:06;-1.35;75.53
65374;SHT31;52070;53.760;9.678;2022-12-18T14:13:36;-1.39;75.91
65374;SHT31;52070;53.760;9.678;2022-12-18T14:16:05;-1.38;75.67
65374;SHT31;52070;53.760;9.678;2022-12-18T14:18:43;-1.41;76.12
65374;SHT31;52070;53.760;9.678;2022-12-18T14:21:18;-1.45;75.81
65374;SHT31;52070;53.760;9.678;2022-12-18T14:23:46;-1.51;76.46
65374;SHT31;52070;53.760;9.678;2022-12-18T14:26:22;-1.58;76.00
65374;SHT31;52070;53.760;9.678;2022-12-18T14:28:50;-1.56;76.49
65374;SHT31;52070;53.760;9.678;2022-12-18T14:31:18;-1.62;75.73
65374;SHT31;52070;53.760;9.678;2022-12-18T14:33:47;-1.66;76.40
65374;SHT31;52070;53.760;9.678;2022-12-18T14:36:17;-1.74;76.68
65374;SHT31;52070;53.760;9.678;2022-12-18T14:38:49;-1.80;76.88
65374;SHT31;52070;53.760;9.678;2022-12-18T14:41:17;-1.87;76.77
65374;SHT31;52070;53.760;9.678;2022-12-18T14:43:47;-1.91;77.24
65374;SHT31;52070;53.760;9.678;2022-12-18T14:46:33;-1.94;77.28
65374;SHT31;52070;53.760;9.678;2022-12-18T14:49:04;-1.97;76.88
65374;SHT31;52070;53.760;9.678;2022-12-18T14:51:33;-2.06;77.10
65374;SHT31;52070;53.760;9.678;2022-12-18T14:54:02;-2.11;76.87
65374;SHT31;52070;53.760;9.678;2022-12-18T14:56:32;-2.20;77.24
65374;SHT31;52070;53.760;9.678;2022-12-18T14:59:01;-2.30;77.52
65374;SHT31;52070;53.760;9.678;2022-12-18T15:01:31;-2.35;77.60
65374;SHT31;52070;53.760;9.678;2022-12-18T15:03:59;-2.42;77.58
65374;SHT31;52070;53.760;9.678;2022-12-18T15:06:31;-2.44;77.85
65374;SHT31;52070;53.760;9.678;2022-12-18T15:08:59;-2.47;77.67
65374;SHT31;52070;53.760;9.678;2022-12-18T15:11:45;-2.54;77.90
65374;SHT31;52070;53.760;9.678;2022-12-18T15:14:22;-2.65;78.25
65374;SHT31;52070;53.760;9.678;2022-12-18T15:16:51;-2.66;78.28
65374;SHT31;52070;53.760;9.678;2022-12-18T15:19:20;-2.76;78.26
65374;SHT31;52070;53.760;9.678;2022-12-18T15:21:49;-2.82;78.65
65374;SHT31;52070;53.760;9.678;2022-12-18T15:24:18;-2.86;78.66
65374;SHT31;52070;53.760;9.678;2022-12-18T15:26:46;-2.93;78.99
65374;SHT31;52070;53.760;9.678;2022-12-18T15:29:19;-3.00;79.36
65374;SHT31;52070;53.760;9.678;2022-12-18T15:31:58;-2.99;79.40
65374;SHT31;52070;53.760;9.678;2022-12-18T15:34:26;-3.00;79.65
65374;SHT31;52070;53.760;9.678;2022-12-18T15:36:55;-3.06;79.82
65374;SHT31;52070;53.760;9.678;2022-12-18T15:39:22;-3.12;80.18
65374;SHT31;52070;53.760;9.678;2022-12-18T15:41:50;-3.07;80.21
65374;SHT31;52070;53.760;9.678;2022-12-18T15:44:35;-3.17;80.46
65374;SHT31;52070;53.760;9.678;2022-12-18T15:47:02;-3.13;80.64
65374;SHT31;52070;53.760;9.678;2022-12-18T15:49:29;-3.14;80.73
65374;SHT31;52070;53.760;9.678;2022-12-18T15:51:59;-3.17;80.90
65374;SHT31;52070;53.760;9.678;2022-12-18T15:54:26;-3.19;81.21
65374;SHT31;52070;53.760;9.678;2022-12-18T15:57:13;-3.09;80.81
65374;SHT31;52070;53.760;9.678;2022-12-18T15:59:53;-3.16;80.90
65374;SHT31;52070;53.760;9.678;2022-12-18T16:02:22;-3.17;81.08
65374;SHT31;52070;53.760;9.678;2022-12-18T16:04:50;-3.17;81.03